Time;durP1;ratioP1;P1;durP2;ratioP2;P2;SDS_P1;SDS_P2;PMS_P1;PMS_P2;Temp;Humidity;BMP_temperature;BMP_pressure;BME280_temperature;BME280_humidity;BME280_pressure;Samples;Min_cycle;Max_cycle;Signal;HPM_P1;HPM_P2
2022/11/24 00:00:51;;;;;;;;;61.33;49.33;;;;;;;;4971823;28;8804;-79
2022/11/24 00:03:16;;;;;;;;;59.00;47.33;;;;;;;;4972112;28;9660;-79
2022/11/24 00:05:41;;;;;;;;;63.00;47.00;;;;;;;;4982679;28;8956;-80
2022/11/24 00:08:07;;;;;;;;;53.33;47.33;;;;;;;;4972959;28;8797;-80
2022/11/24 00:10:32;;;;;;;;;61.00;50.67;;;;;;;;4971651;28;8817;-80
2022/11/24 00:12:57;;;;;;;;;65.00;53.00;;;;;;;;4971421;28;8820;-80
2022/11/24 00:15:23;;;;;;;;;61.67;51.00;;;;;;;;4971446;28;8784;-80
2022/11/24 00:17:48;;;;;;;;;62.33;51.67;;;;;;;;4971350;28;8793;-80
2022/11/24 00:20:14;;;;;;;;;59.67;47.00;;;;;;;;4971208;28;8824;-78
2022/11/24 00:22:39;;;;;;;;;57.67;48.33;;;;;;;;4971124;28;8793;-79
2022/11/24 00:25:04;;;;;;;;;61.00;47.00;;;;;;;;4969992;28;9008;-79
2022/11/24 00:27:30;;;;;;;;;56.33;47.67;;;;;;;;4971305;28;8796;-79
2022/11/24 00:29:55;;;;;;;;;54.33;46.00;;;;;;;;4971068;28;8816;-79
2022/11/24 00:32:20;;;;;;;;;66.67;50.67;;;;;;;;4970879;28;8814;-79
2022/11/24 00:34:45;;;;;;;;;58.67;51.33;;;;;;;;4970803;28;8811;-79
2022/11/24 00:37:11;;;;;;;;;56.00;49.67;;;;;;;;4985799;28;8879;-80
2022/11/24 00:39:36;;;;;;;;;67.00;51.33;;;;;;;;4970887;28;8820;-80
2022/11/24 00:42:01;;;;;;;;;70.00;53.67;;;;;;;;4970763;28;8910;-79
2022/11/24 00:44:26;;;;;;;;;66.67;52.33;;;;;;;;4970784;28;8895;-78
2022/11/24 00:46:52;;;;;;;;;69.00;55.00;;;;;;;;4969733;28;8821;-78
2022/11/24 00:49:17;;;;;;;;;56.33;44.67;;;;;;;;4990845;23;8971;-75
2022/11/24 00:51:42;;;;;;;;;59.67;45.00;;;;;;;;5010611;28;8804;-76
2022/11/24 00:54:17;;;;;;;;;70.00;56.33;;;;;;;;5009097;28;8892;-77
2022/11/24 00:56:42;;;;;;;;;69.33;56.00;;;;;;;;5010558;28;8827;-79
2022/11/24 00:59:07;;;;;;;;;62.33;51.33;;;;;;;;5010463;28;8854;-77
2022/11/24 01:01:35;;;;;;;;;70.33;53.00;;;;;;;;5010276;28;8823;-77
2022/11/24 01:04:04;;;;;;;;;78.00;57.00;;;;;;;;5010470;28;8812;-77
2022/11/24 01:06:29;;;;;;;;;66.67;56.67;;;;;;;;5010410;28;8909;-77
2022/11/24 01:08:55;;;;;;;;;58.00;50.33;;;;;;;;5010112;28;8828;-75
2022/11/24 01:11:22;;;;;;;;;61.33;51.00;;;;;;;;5010159;28;8905;-76
2022/11/24 01:13:48;;;;;;;;;62.67;52.67;;;;;;;;5010302;28;8788;-78
2022/11/24 01:16:14;;;;;;;;;54.33;47.33;;;;;;;;5010158;28;8810;-77
2022/11/24 01:18:39;;;;;;;;;57.67;46.67;;;;;;;;5010643;28;8911;-79
2022/11/24 01:21:04;;;;;;;;;59.00;48.67;;;;;;;;5010363;28;9514;-78
2022/11/24 01:23:30;;;;;;;;;55.33;44.00;;;;;;;;5010188;28;8886;-78
2022/11/24 01:25:56;;;;;;;;;55.33;46.67;;;;;;;;5009059;28;8812;-77
2022/11/24 01:28:21;;;;;;;;;50.67;43.00;;;;;;;;5009845;28;8848;-80
2022/11/24 01:30:55;;;;;;;;;50.33;46.33;;;;;;;;5010282;28;8993;-80
2022/11/24 01:33:20;;;;;;;;;9.33;2.00;;;;;;;;5010451;28;8788;-81
2022/11/24 01:35:45;;;;;;;;;48.67;41.67;;;;;;;;5009870;28;8816;-81
2022/11/24 01:38:11;;;;;;;;;42.33;38.00;;;;;;;;5009632;28;8827;-77
2022/11/24 01:40:36;;;;;;;;;41.33;37.33;;;;;;;;5009971;28;8962;-80
2022/11/24 01:43:01;;;;;;;;;40.33;35.33;;;;;;;;5009924;28;8811;-77
2022/11/24 01:45:31;;;;;;;;;51.00;43.33;;;;;;;;5009787;28;8812;-79
2022/11/24 01:47:56;;;;;;;;;44.67;39.00;;;;;;;;5009512;28;8788;-77
2022/11/24 01:50:22;;;;;;;;;39.00;35.67;;;;;;;;5008167;28;8827;-77
2022/11/24 01:52:52;;;;;;;;;46.00;39.67;;;;;;;;5009020;28;8804;-76
2022/11/24 01:55:24;;;;;;;;;45.33;38.67;;;;;;;;5009653;28;8788;-77
2022/11/24 01:57:53;;;;;;;;;42.67;37.67;;;;;;;;5008407;28;9546;-76
2022/11/24 02:00:19;;;;;;;;;49.33;41.67;;;;;;;;5010889;28;8850;-75
2022/11/24 02:02:44;;;;;;;;;56.33;44.67;;;;;;;;5013918;28;8816;-76
2022/11/24 02:05:12;;;;;;;;;41.33;39.00;;;;;;;;5012136;28;9571;-77
2022/11/24 02:07:37;;;;;;;;;45.33;42.67;;;;;;;;4995744;28;8804;-77
2022/11/24 02:10:07;;;;;;;;;44.33;37.33;;;;;;;;5013483;28;9527;-75
2022/11/24 02:12:33;;;;;;;;;40.00;38.67;;;;;;;;5013446;28;8830;-76
2022/11/24 02:14:58;;;;;;;;;52.00;43.00;;;;;;;;5013168;28;8911;-76
2022/11/24 02:17:24;;;;;;;;;47.33;39.67;;;;;;;;5013159;28;8811;-76
2022/11/24 02:20:15;;;;;;;;;30.00;29.00;;;;;;;;5024631;28;8849;-76
2022/11/24 02:23:00;;;;;;;;;47.33;41.00;;;;;;;;5026563;28;8905;-77
2022/11/24 02:25:31;;;;;;;;;47.00;38.00;;;;;;;;5013903;28;8796;-77
2022/11/24 02:27:58;;;;;;;;;44.00;38.33;;;;;;;;5013237;28;8804;-75
2022/11/24 02:30:24;;;;;;;;;38.33;35.33;;;;;;;;5013589;28;8814;-77
2022/11/24 02:32:50;;;;;;;;;53.67;45.67;;;;;;;;5013536;28;8939;-77
2022/11/24 02:35:16;;;;;;;;;48.33;39.00;;;;;;;;5013432;28;9515;-76
2022/11/24 02:37:41;;;;;;;;;45.67;41.67;;;;;;;;5012994;28;8903;-76
2022/11/24 02:40:07;;;;;;;;;42.33;38.33;;;;;;;;5013178;28;9551;-77
2022/11/24 02:42:36;;;;;;;;;41.33;34.33;;;;;;;;5013127;28;8830;-76
2022/11/24 02:45:02;;;;;;;;;43.67;38.67;;;;;;;;5011825;28;8796;-76
2022/11/24 02:47:27;;;;;;;;;37.33;33.67;;;;;;;;5011712;28;8819;-75
2022/11/24 02:49:52;;;;;;;;;39.33;35.67;;;;;;;;5012985;28;9026;-76
2022/11/24 02:52:18;;;;;;;;;41.33;38.00;;;;;;;;5012547;28;8799;-77
2022/11/24 02:54:43;;;;;;;;;44.67;41.67;;;;;;;;5011230;28;9574;-74
2022/11/24 02:57:08;;;;;;;;;41.33;39.67;;;;;;;;5012632;28;8814;-76
2022/11/24 02:59:34;;;;;;;;;39.67;38.33;;;;;;;;5012586;28;8792;-76
2022/11/24 03:01:59;;;;;;;;;42.67;38.33;;;;;;;;5012375;28;8850;-73
2022/11/24 03:04:25;;;;;;;;;25.33;20.00;;;;;;;;5010777;28;8946;-74
2022/11/24 03:06:50;;;;;;;;;37.33;36.00;;;;;;;;5012165;28;8820;-76
2022/11/24 03:09:15;;;;;;;;;42.00;38.00;;;;;;;;5012238;28;8832;-73
2022/11/24 03:11:40;;;;;;;;;41.33;38.67;;;;;;;;5011613;28;8784;-74
2022/11/24 03:14:06;;;;;;;;;37.00;35.67;;;;;;;;5012084;28;8929;-74
2022/11/24 03:16:32;;;;;;;;;38.33;36.33;;;;;;;;5010590;28;8918;-76
2022/11/24 03:18:57;;;;;;;;;40.33;35.67;;;;;;;;5012033;28;8812;-76
2022/11/24 03:21:22;;;;;;;;;39.00;37.00;;;;;;;;5012213;28;8877;-73
2022/11/24 03:23:47;;;;;;;;;45.67;39.00;;;;;;;;5012417;28;8810;-76
2022/11/24 03:26:15;;;;;;;;;41.67;31.67;;;;;;;;5010871;28;8838;-76
2022/11/24 03:28:40;;;;;;;;;40.33;37.33;;;;;;;;5012162;28;8828;-78
2022/11/24 03:31:06;;;;;;;;;42.00;34.00;;;;;;;;5012236;28;8911;-77
2022/11/24 03:33:32;;;;;;;;;43.67;40.33;;;;;;;;5011816;28;8808;-77
2022/11/24 03:35:57;;;;;;;;;46.33;39.00;;;;;;;;5012114;28;8788;-75
2022/11/24 03:38:22;;;;;;;;;51.00;42.00;;;;;;;;5012088;28;8918;-77
2022/11/24 03:40:48;;;;;;;;;43.33;39.00;;;;;;;;5011815;28;8814;-76
2022/11/24 03:43:13;;;;;;;;;47.67;45.00;;;;;;;;5011926;28;8804;-75
2022/11/24 03:45:39;;;;;;;;;55.33;45.67;;;;;;;;5011769;28;8788;-78
2022/11/24 03:48:04;;;;;;;;;45.00;42.33;;;;;;;;5011774;28;8816;-74
2022/11/24 03:50:30;;;;;;;;;47.67;40.33;;;;;;;;5011847;28;8906;-76
2022/11/24 03:52:55;;;;;;;;;47.00;43.67;;;;;;;;5011597;28;8784;-76
2022/11/24 03:55:20;;;;;;;;;54.67;47.33;;;;;;;;5010126;28;8935;-75
2022/11/24 03:57:45;;;;;;;;;48.67;43.00;;;;;;;;5011303;28;8799;-76
2022/11/24 04:00:11;;;;;;;;;47.00;41.33;;;;;;;;5011073;28;8808;-76
2022/11/24 04:02:36;;;;;;;;;49.00;45.00;;;;;;;;5010214;28;8838;-76
2022/11/24 04:05:02;;;;;;;;;47.33;44.33;;;;;;;;5011228;28;8834;-75
2022/11/24 04:07:27;;;;;;;;;50.67;43.33;;;;;;;;5010389;28;8888;-75
2022/11/24 04:09:52;;;;;;;;;56.33;45.33;;;;;;;;5011376;28;8863;-75
2022/11/24 04:15:02;;;;;;;;;47.67;38.00;;;;;;;;5011324;28;8804;-76
2022/11/24 04:17:27;;;;;;;;;46.33;43.00;;;;;;;;5011156;28;8850;-76
2022/11/24 04:19:52;;;;;;;;;38.33;26.33;;;;;;;;5011265;28;9547;-75
2022/11/24 04:22:18;;;;;;;;;51.67;42.67;;;;;;;;5010435;28;8811;-75
2022/11/24 04:24:43;;;;;;;;;48.00;37.33;;;;;;;;5010493;28;8796;-80
2022/11/24 04:27:08;;;;;;;;;40.00;37.67;;;;;;;;5009146;28;8881;-74
2022/11/24 04:29:34;;;;;;;;;51.00;41.00;;;;;;;;5010387;28;8831;-75
2022/11/24 04:31:59;;;;;;;;;50.00;45.33;;;;;;;;5010148;28;8824;-74
2022/11/24 04:34:24;;;;;;;;;50.00;41.67;;;;;;;;5011410;28;8858;-74
2022/11/24 04:36:49;;;;;;;;;54.00;44.33;;;;;;;;5011619;28;8815;-74
2022/11/24 04:39:14;;;;;;;;;38.00;37.33;;;;;;;;5010423;28;8820;-73
2022/11/24 04:41:40;;;;;;;;;50.67;42.00;;;;;;;;5010055;28;8824;-74
2022/11/24 04:44:05;;;;;;;;;39.67;33.67;;;;;;;;5010180;28;8804;-74
2022/11/24 04:46:30;;;;;;;;;56.33;42.67;;;;;;;;5010175;28;9519;-72
2022/11/24 04:48:55;;;;;;;;;41.67;34.00;;;;;;;;5010341;28;8848;-73
2022/11/24 04:51:21;;;;;;;;;44.00;42.00;;;;;;;;5010008;28;8873;-74
2022/11/24 04:53:47;;;;;;;;;40.67;39.67;;;;;;;;5010054;28;8828;-74
2022/11/24 04:56:12;;;;;;;;;49.33;43.33;;;;;;;;5008763;28;8882;-73
2022/11/24 04:58:38;;;;;;;;;48.67;43.67;;;;;;;;5008736;28;9908;-74
2022/11/24 05:01:05;;;;;;;;;44.33;39.00;;;;;;;;5010053;28;8800;-75
2022/11/24 05:03:30;;;;;;;;;50.00;44.00;;;;;;;;5008563;28;9705;-74
2022/11/24 05:05:57;;;;;;;;;39.67;34.33;;;;;;;;5010006;28;8927;-74
2022/11/24 05:08:22;;;;;;;;;47.00;44.00;;;;;;;;5009785;28;8843;-73
2022/11/24 05:10:47;;;;;;;;;54.67;47.00;;;;;;;;5009787;28;8924;-74
2022/11/24 05:13:13;;;;;;;;;45.00;44.00;;;;;;;;5009758;28;8819;-75
2022/11/24 05:15:39;;;;;;;;;49.33;43.67;;;;;;;;5008366;28;8850;-75
2022/11/24 05:18:05;;;;;;;;;58.67;46.33;;;;;;;;5009581;28;8922;-73
2022/11/24 05:20:31;;;;;;;;;51.67;47.00;;;;;;;;5009526;28;8800;-74
2022/11/24 05:22:59;;;;;;;;;30.67;24.33;;;;;;;;5009647;28;8796;-74
2022/11/24 05:25:25;;;;;;;;;50.33;41.00;;;;;;;;5009449;28;8866;-74
2022/11/24 05:27:50;;;;;;;;;48.67;44.00;;;;;;;;5011267;28;8820;-73
2022/11/24 05:30:15;;;;;;;;;40.67;35.00;;;;;;;;5009300;28;8824;-74
2022/11/24 05:32:40;;;;;;;;;61.33;50.67;;;;;;;;5009169;28;8854;-72
2022/11/24 05:35:08;;;;;;;;;51.33;45.33;;;;;;;;5009394;28;8824;-75
2022/11/24 05:37:33;;;;;;;;;63.67;47.00;;;;;;;;5009138;28;8898;-74
2022/11/24 05:39:59;;;;;;;;;42.67;42.67;;;;;;;;5009228;28;8804;-74
2022/11/24 05:42:39;;;;;;;;;53.33;47.00;;;;;;;;5009441;28;8819;-75
2022/11/24 05:45:05;;;;;;;;;58.00;48.67;;;;;;;;5009147;28;8832;-75
2022/11/24 05:47:30;;;;;;;;;54.00;44.00;;;;;;;;5009415;28;8839;-75
2022/11/24 05:49:55;;;;;;;;;50.33;44.33;;;;;;;;5009696;28;8824;-74
2022/11/24 05:52:21;;;;;;;;;56.33;46.33;;;;;;;;5009368;28;8854;-74
2022/11/24 05:54:46;;;;;;;;;51.00;48.00;;;;;;;;5009240;28;8804;-74
2022/11/24 05:57:12;;;;;;;;;55.33;47.00;;;;;;;;5026975;28;8856;-74
2022/11/24 05:59:37;;;;;;;;;50.00;45.67;;;;;;;;5017292;28;8828;-74
2022/11/24 06:02:03;;;;;;;;;54.67;47.33;;;;;;;;5017191;28;8821;-75
2022/11/24 06:04:28;;;;;;;;;43.33;40.67;;;;;;;;5001064;28;9048;-74
2022/11/24 06:06:53;;;;;;;;;59.67;49.33;;;;;;;;5018149;28;8964;-74
2022/11/24 06:09:18;;;;;;;;;50.67;47.00;;;;;;;;5017396;28;9559;-74
2022/11/24 06:11:45;;;;;;;;;53.33;47.00;;;;;;;;5015362;28;8817;-75
2022/11/24 06:14:11;;;;;;;;;49.67;44.00;;;;;;;;5024359;28;8813;-75
2022/11/24 06:16:36;;;;;;;;;58.67;48.33;;;;;;;;5029230;28;8920;-75
2022/11/24 06:19:01;;;;;;;;;57.33;49.00;;;;;;;;5027994;28;8916;-77
2022/11/24 06:21:27;;;;;;;;;49.33;44.67;;;;;;;;5028903;28;8794;-77
2022/11/24 06:23:52;;;;;;;;;57.00;46.00;;;;;;;;5029426;28;8904;-76
2022/11/24 06:26:17;;;;;;;;;49.00;46.00;;;;;;;;5029392;28;8836;-74
2022/11/24 06:28:42;;;;;;;;;55.67;49.00;;;;;;;;5027617;28;8845;-75
2022/11/24 06:31:08;;;;;;;;;58.00;48.33;;;;;;;;5029072;28;8782;-73
2022/11/24 06:33:35;;;;;;;;;59.00;49.33;;;;;;;;5029137;28;8777;-77
2022/11/24 06:36:04;;;;;;;;;49.67;45.67;;;;;;;;5029501;28;9484;-73
2022/11/24 06:38:30;;;;;;;;;60.50;52.75;;;;;;;;5028868;28;8797;-71
2022/11/24 06:41:05;;;;;;;;;48.67;44.33;;;;;;;;5028827;28;8974;-73
2022/11/24 06:43:31;;;;;;;;;58.33;48.67;;;;;;;;5015536;28;8827;-74
2022/11/24 06:45:56;;;;;;;;;52.00;47.33;;;;;;;;5007972;28;8874;-74
2022/11/24 06:48:22;;;;;;;;;48.67;43.67;;;;;;;;5011653;28;8827;-73
2022/11/24 06:50:47;;;;;;;;;58.00;48.33;;;;;;;;5013831;28;8812;-74
2022/11/24 06:53:13;;;;;;;;;65.33;49.33;;;;;;;;5014318;28;8811;-72
2022/11/24 06:55:39;;;;;;;;;60.33;49.67;;;;;;;;5027684;28;8919;-73
2022/11/24 06:58:04;;;;;;;;;58.67;48.67;;;;;;;;5030295;28;8824;-73
2022/11/24 07:00:31;;;;;;;;;55.00;45.33;;;;;;;;5029284;28;8801;-81
2022/11/24 07:02:57;;;;;;;;;58.00;47.67;;;;;;;;5032005;28;8801;-74
2022/11/24 07:05:22;;;;;;;;;63.00;47.67;;;;;;;;5031759;28;8899;-75
2022/11/24 07:07:47;;;;;;;;;55.67;49.00;;;;;;;;5027426;28;9535;-73
2022/11/24 07:10:13;;;;;;;;;55.33;49.00;;;;;;;;5018874;28;8957;-71
2022/11/24 07:12:38;;;;;;;;;52.00;45.67;;;;;;;;5020106;28;9488;-74
2022/11/24 07:15:04;;;;;;;;;59.67;48.00;;;;;;;;5022316;28;8801;-74
2022/11/24 07:17:29;;;;;;;;;56.00;48.33;;;;;;;;5020501;28;8796;-71
2022/11/24 07:19:54;;;;;;;;;52.67;44.00;;;;;;;;5021596;28;8825;-72
2022/11/24 07:22:19;;;;;;;;;58.67;46.00;;;;;;;;5021215;28;8923;-76
2022/11/24 07:24:45;;;;;;;;;56.75;45.50;;;;;;;;5017683;28;8932;-73
2022/11/24 07:27:10;;;;;;;;;55.50;45.75;;;;;;;;5018910;28;8801;-71
2022/11/24 07:29:35;;;;;;;;;55.75;44.25;;;;;;;;5019506;28;8982;-71
2022/11/24 07:32:00;;;;;;;;;55.00;45.25;;;;;;;;5019161;28;8821;-73
2022/11/24 07:34:26;;;;;;;;;55.75;44.25;;;;;;;;5019162;28;8804;-74
2022/11/24 07:36:51;;;;;;;;;51.25;42.25;;;;;;;;5019159;28;8918;-73
2022/11/24 07:39:16;;;;;;;;;51.50;43.25;;;;;;;;5019735;28;8890;-74
2022/11/24 07:41:43;;;;;;;;;49.25;41.75;;;;;;;;5020789;28;8801;-71
2022/11/24 07:44:08;;;;;;;;;53.50;43.75;;;;;;;;5018911;28;8886;-82
2022/11/24 07:46:33;;;;;;;;;52.25;43.75;;;;;;;;5020241;28;11556;-80
2022/11/24 07:48:58;;;;;;;;;48.00;43.00;;;;;;;;5021132;28;8854;-79
2022/11/24 07:51:24;;;;;;;;;52.00;40.25;;;;;;;;5019411;28;8800;-74
2022/11/24 07:53:49;;;;;;;;;56.33;47.67;;;;;;;;5020807;28;9500;-78
2022/11/24 07:56:15;;;;;;;;;53.67;42.33;;;;;;;;5019611;28;8918;-78
2022/11/24 07:58:40;;;;;;;;;53.00;43.33;;;;;;;;5019325;28;8789;-79
2022/11/24 08:01:10;;;;;;;;;53.33;42.67;;;;;;;;5021155;28;8844;-78
2022/11/24 08:03:35;;;;;;;;;54.00;45.33;;;;;;;;5018358;28;8809;-74
2022/11/24 08:06:01;;;;;;;;;51.33;42.67;;;;;;;;5020291;28;9658;-74
2022/11/24 08:08:26;;;;;;;;;50.00;43.00;;;;;;;;5018071;28;8880;-74
2022/11/24 08:10:52;;;;;;;;;59.00;46.67;;;;;;;;5019059;28;9073;-68
2022/11/24 08:13:17;;;;;;;;;55.00;43.00;;;;;;;;5018488;28;8828;-67
2022/11/24 08:15:43;;;;;;;;;52.00;42.00;;;;;;;;5020258;28;8816;-68
2022/11/24 08:18:08;;;;;;;;;49.33;42.33;;;;;;;;5017930;28;9002;-68
2022/11/24 08:20:33;;;;;;;;;47.00;42.00;;;;;;;;5020721;28;8808;-69
2022/11/24 08:22:59;;;;;;;;;50.67;43.00;;;;;;;;5018028;28;8809;-68
2022/11/24 08:25:31;;;;;;;;;54.00;43.33;;;;;;;;5019314;28;8789;-68
2022/11/24 08:28:00;;;;;;;;;48.67;43.00;;;;;;;;5017094;28;8844;-68
2022/11/24 08:30:26;;;;;;;;;56.33;44.00;;;;;;;;5020024;28;8940;-68
2022/11/24 08:32:51;;;;;;;;;48.67;42.33;;;;;;;;5034012;28;8959;-68
2022/11/24 08:35:16;;;;;;;;;53.00;43.33;;;;;;;;5017366;28;8827;-69
2022/11/24 08:37:42;;;;;;;;;48.67;44.00;;;;;;;;5017440;28;8847;-69
2022/11/24 08:40:07;;;;;;;;;52.33;42.33;;;;;;;;5014439;28;8878;-69
2022/11/24 08:42:32;;;;;;;;;57.33;43.67;;;;;;;;5018703;28;8813;-70
2022/11/24 08:44:58;;;;;;;;;45.33;39.33;;;;;;;;5018934;28;8823;-70
2022/11/24 08:47:23;;;;;;;;;40.67;38.00;;;;;;;;5017273;28;8897;-70
2022/11/24 08:49:48;;;;;;;;;50.00;43.67;;;;;;;;5018978;28;8833;-70
2022/11/24 08:52:15;;;;;;;;;51.67;39.00;;;;;;;;5009694;28;8788;-71
2022/11/24 08:54:43;;;;;;;;;50.00;42.67;;;;;;;;5009587;28;8796;-69
2022/11/24 08:57:08;;;;;;;;;50.67;44.33;;;;;;;;5031682;28;8836;-69
2022/11/24 08:59:33;;;;;;;;;56.67;46.33;;;;;;;;5028943;28;9558;-69
2022/11/24 09:01:58;;;;;;;;;48.33;43.67;;;;;;;;5026005;28;8799;-70
2022/11/24 09:04:24;;;;;;;;;54.00;43.33;;;;;;;;5015800;28;8785;-68
2022/11/24 09:06:49;;;;;;;;;55.00;43.67;;;;;;;;5011230;28;8804;-69
2022/11/24 09:09:14;;;;;;;;;48.00;41.00;;;;;;;;5011248;28;8857;-71
2022/11/24 09:11:40;;;;;;;;;55.33;43.00;;;;;;;;5017115;28;8836;-69
2022/11/24 09:14:05;;;;;;;;;45.67;42.00;;;;;;;;5017704;28;8829;-71
2022/11/24 09:16:30;;;;;;;;;54.33;45.33;;;;;;;;5018589;28;8828;-72
2022/11/24 09:18:55;;;;;;;;;54.67;46.67;;;;;;;;5028403;28;8855;-72
2022/11/24 09:21:21;;;;;;;;;63.67;48.33;;;;;;;;5016896;28;8821;-70
2022/11/24 09:23:47;;;;;;;;;54.67;45.67;;;;;;;;5017141;28;8846;-71
2022/11/24 09:26:20;;;;;;;;;54.00;46.00;;;;;;;;5013843;28;8835;-70
2022/11/24 09:28:45;;;;;;;;;59.00;48.00;;;;;;;;5018461;28;8833;-72
2022/11/24 09:31:13;;;;;;;;;56.33;46.67;;;;;;;;5008389;28;8853;-72
2022/11/24 09:33:38;;;;;;;;;52.33;44.33;;;;;;;;5010374;28;8788;-71
2022/11/24 09:36:04;;;;;;;;;55.67;46.00;;;;;;;;5028133;28;8848;-73
2022/11/24 09:38:30;;;;;;;;;57.33;47.67;;;;;;;;5027848;28;8825;-70
2022/11/24 09:41:11;;;;;;;;;52.33;43.00;;;;;;;;5015337;28;8831;-72
2022/11/24 09:43:40;;;;;;;;;53.33;45.00;;;;;;;;5008210;28;8898;-71
2022/11/24 09:46:13;;;;;;;;;54.00;45.33;;;;;;;;5008378;28;8957;-71
2022/11/24 09:48:40;;;;;;;;;50.33;43.33;;;;;;;;5008249;28;8895;-70
2022/11/24 09:51:10;;;;;;;;;48.33;41.33;;;;;;;;5012367;28;8875;-70
2022/11/24 09:53:43;;;;;;;;;52.00;43.00;;;;;;;;5027764;28;8813;-68
2022/11/24 09:56:20;;;;;;;;;50.67;43.00;;;;;;;;5013625;28;8900;-70
2022/11/24 09:59:04;;;;;;;;;40.33;35.33;;;;;;;;5007859;28;8819;-71
2022/11/24 10:01:31;;;;;;;;;55.33;44.67;;;;;;;;5006163;28;9636;-71
2022/11/24 10:03:56;;;;;;;;;52.33;43.67;;;;;;;;5007702;28;8939;-72
2022/11/24 10:06:25;;;;;;;;;49.33;44.00;;;;;;;;5009218;28;8812;-72
2022/11/24 10:09:17;;;;;;;;;57.67;45.67;;;;;;;;5009134;28;8829;-71
2022/11/24 10:11:42;;;;;;;;;52.00;44.00;;;;;;;;5000382;28;9717;-71
2022/11/24 10:14:14;;;;;;;;;49.67;43.67;;;;;;;;5009095;28;8886;-71
2022/11/24 10:16:44;;;;;;;;;52.67;41.33;;;;;;;;5009112;28;8792;-71
2022/11/24 10:19:20;;;;;;;;;53.67;44.00;;;;;;;;5007939;28;8811;-72
2022/11/24 10:21:49;;;;;;;;;54.00;45.00;;;;;;;;5011185;28;8916;-72
2022/11/24 10:24:23;;;;;;;;;40.33;29.00;;;;;;;;5012425;28;8800;-72
2022/11/24 10:26:58;;;;;;;;;50.33;45.00;;;;;;;;5013184;28;8776;-71
2022/11/24 10:29:38;;;;;;;;;53.67;45.00;;;;;;;;5012773;28;8938;-71
2022/11/24 10:32:06;;;;;;;;;53.00;42.33;;;;;;;;5012784;28;8796;-71
2022/11/24 10:34:33;;;;;;;;;51.67;44.33;;;;;;;;5012834;28;8826;-72
2022/11/24 10:37:04;;;;;;;;;53.67;44.33;;;;;;;;5027931;28;8820;-71
2022/11/24 10:39:40;;;;;;;;;50.00;43.00;;;;;;;;5012384;28;8800;-71
2022/11/24 10:42:15;;;;;;;;;54.33;43.33;;;;;;;;5009007;28;8836;-71
2022/11/24 10:44:41;;;;;;;;;54.67;44.67;;;;;;;;5014919;28;8970;-70
2022/11/24 10:47:16;;;;;;;;;51.00;42.33;;;;;;;;5029863;28;8844;-71
2022/11/24 10:49:46;;;;;;;;;54.00;43.00;;;;;;;;5031129;28;8892;-71
2022/11/24 10:52:15;;;;;;;;;51.50;42.00;;;;;;;;5023641;28;8821;-71
2022/11/24 10:54:54;;;;;;;;;43.00;38.50;;;;;;;;5031697;28;11618;-70
2022/11/24 10:57:29;;;;;;;;;39.50;34.75;;;;;;;;5031311;28;11523;-70
2022/11/24 10:59:55;;;;;;;;;42.25;35.00;;;;;;;;5031601;28;11470;-69
2022/11/24 11:02:31;;;;;;;;;35.75;31.25;;;;;;;;5020780;28;11474;-70
2022/11/24 11:04:56;;;;;;;;;36.75;31.75;;;;;;;;5014846;28;8836;-72
2022/11/24 11:07:23;;;;;;;;;34.75;30.50;;;;;;;;5021275;28;10138;-68
2022/11/24 11:09:49;;;;;;;;;32.67;28.67;;;;;;;;5027982;28;8831;-70
2022/11/24 11:12:24;;;;;;;;;32.33;29.33;;;;;;;;5010305;28;9235;-69
2022/11/24 11:14:53;;;;;;;;;33.25;29.50;;;;;;;;5011840;28;8832;-69
2022/11/24 11:17:27;;;;;;;;;28.75;27.25;;;;;;;;5010780;28;8816;-68
2022/11/24 11:19:54;;;;;;;;;30.25;29.25;;;;;;;;5014047;28;8938;-69
2022/11/24 11:22:28;;;;;;;;;29.00;28.00;;;;;;;;5024147;28;8809;-68
2022/11/24 11:25:16;;;;;;;;;25.50;25.50;;;;;;;;5031389;28;9634;-69
2022/11/24 11:27:42;;;;;;;;;28.25;23.50;;;;;;;;5031019;28;8801;-68
2022/11/24 11:30:29;;;;;;;;;27.33;24.00;;;;;;;;5029826;28;8863;-68
2022/11/24 11:32:55;;;;;;;;;28.75;27.25;;;;;;;;5011588;28;8828;-70
2022/11/24 11:35:22;;;;;;;;;26.67;26.00;;;;;;;;5011428;28;8807;-69
2022/11/24 11:37:48;;;;;;;;;27.00;26.00;;;;;;;;5018202;28;9170;-69
2022/11/24 11:40:19;;;;;;;;;29.00;28.00;;;;;;;;5016325;28;9328;-69
2022/11/24 11:42:48;;;;;;;;;26.75;26.75;;;;;;;;5017351;28;10023;-69
2022/11/24 11:45:15;;;;;;;;;31.00;26.00;;;;;;;;5016184;28;10322;-69
2022/11/24 11:47:43;;;;;;;;;30.75;29.75;;;;;;;;5020844;28;10544;-69
2022/11/24 11:50:12;;;;;;;;;28.25;25.75;;;;;;;;5018969;28;10881;-70
2022/11/24 11:53:13;;;;;;;;;25.25;22.75;;;;;;;;5012870;28;11073;-70
2022/11/24 11:55:44;;;;;;;;;29.00;25.75;;;;;;;;4976073;28;11214;-69
2022/11/24 11:58:28;;;;;;;;;24.00;23.75;;;;;;;;4980190;28;11319;-69
2022/11/24 12:01:02;;;;;;;;;28.75;27.75;;;;;;;;4987039;28;11557;-68
2022/11/24 12:03:46;;;;;;;;;26.75;25.50;;;;;;;;4980064;28;11625;-68
2022/11/24 12:06:23;;;;;;;;;21.25;20.25;;;;;;;;4979452;28;12313;-70
2022/11/24 12:08:48;;;;;;;;;20.50;20.50;;;;;;;;4979753;28;11557;-69
2022/11/24 12:11:18;;;;;;;;;19.50;19.50;;;;;;;;4978020;28;12249;-70
2022/11/24 12:13:51;;;;;;;;;20.00;18.00;;;;;;;;4981595;28;8832;-69
2022/11/24 12:16:20;;;;;;;;;16.50;15.75;;;;;;;;4973602;28;11618;-73
2022/11/24 12:18:53;;;;;;;;;26.00;26.00;;;;;;;;4968633;28;11551;-69
2022/11/24 12:21:18;;;;;;;;;22.00;21.50;;;;;;;;4954902;28;11593;-70
2022/11/24 12:23:52;;;;;;;;;24.00;21.75;;;;;;;;4976248;28;11561;-69
2022/11/24 12:26:17;;;;;;;;;17.75;17.75;;;;;;;;4978629;28;8816;-71
2022/11/24 12:29:03;;;;;;;;;18.25;16.50;;;;;;;;4985330;28;11666;-70
2022/11/24 12:31:28;;;;;;;;;31.00;28.25;;;;;;;;4990699;28;8824;-69
2022/11/24 12:34:08;;;;;;;;;36.25;34.50;;;;;;;;5014696;28;11543;-70
2022/11/24 12:36:47;;;;;;;;;21.25;19.25;;;;;;;;5015595;28;8801;-67
2022/11/24 12:39:26;;;;;;;;;17.50;17.00;;;;;;;;5028499;28;11561;-70
2022/11/24 12:41:51;;;;;;;;;21.25;18.25;;;;;;;;5015156;28;11596;-69
2022/11/24 12:44:39;;;;;;;;;15.75;15.00;;;;;;;;5013645;28;11639;-70
2022/11/24 12:47:27;;;;;;;;;15.50;15.50;;;;;;;;5008011;28;8981;-69
2022/11/24 12:50:07;;;;;;;;;18.00;16.75;;;;;;;;5008840;28;11512;-70
2022/11/24 12:52:53;;;;;;;;;18.75;17.75;;;;;;;;5009937;28;12272;-70
2022/11/24 12:55:20;;;;;;;;;17.50;16.50;;;;;;;;5009147;28;11570;-70
2022/11/24 12:58:02;;;;;;;;;17.50;13.00;;;;;;;;5023659;28;11478;-69
2022/11/24 13:00:39;;;;;;;;;14.00;13.25;;;;;;;;5016616;28;11580;-70
2022/11/24 13:03:24;;;;;;;;;11.50;11.50;;;;;;;;5017700;28;11425;-70
2022/11/24 13:05:57;;;;;;;;;13.75;13.00;;;;;;;;5018680;28;11448;-70
2022/11/24 13:08:24;;;;;;;;;14.00;13.25;;;;;;;;5018315;28;11493;-70
2022/11/24 13:10:49;;;;;;;;;12.50;12.00;;;;;;;;5015600;28;11491;-69
2022/11/24 13:13:15;;;;;;;;;15.50;14.00;;;;;;;;5013716;28;11462;-70
2022/11/24 13:15:55;;;;;;;;;14.25;12.00;;;;;;;;5018288;28;9602;-71
2022/11/24 13:18:39;;;;;;;;;18.50;15.25;;;;;;;;5014593;28;8887;-69
2022/11/24 13:21:24;;;;;;;;;13.00;12.00;;;;;;;;5009287;28;11453;-69
2022/11/24 13:24:00;;;;;;;;;17.25;14.00;;;;;;;;5009242;28;11592;-72
2022/11/24 13:26:30;;;;;;;;;13.25;12.25;;;;;;;;5009616;28;11647;-71
2022/11/24 13:28:59;;;;;;;;;17.75;13.75;;;;;;;;5010002;28;11456;-75
2022/11/24 13:31:25;;;;;;;;;12.25;12.00;;;;;;;;5013385;28;12140;-69
